sensor_id;sensor_type;location;lat;lon;timestamp;temperature;humidity
45339;DHT22;31071;51.478;5.710;2023-09-08T00:00:05;21.10;99.90
45339;DHT22;31071;51.478;5.710;2023-09-08T00:02:31;19.60;99.90
45339;DHT22;31071;51.478;5.710;2023-09-08T00:04:56;21.50;99.90
45339;DHT22;31071;51.478;5.710;2023-09-08T00:07:22;20.00;99.90
45339;DHT22;31071;51.478;5.710;2023-09-08T00:09:48;20.90;99.90
45339;DHT22;31071;51.478;5.710;2023-09-08T00:12:13;21.90;99.90
45339;DHT22;31071;51.478;5.710;2023-09-08T00:14:39;22.30;99.90
45339;DHT22;31071;51.478;5.710;2023-09-08T00:17:05;20.10;99.90
45339;DHT22;31071;51.478;5.710;2023-09-08T00:19:30;22.00;99.90
45339;DHT22;31071;51.478;5.710;2023-09-08T00:21:56;21.60;99.90
45339;DHT22;31071;51.478;5.710;2023-09-08T00:24:22;21.40;99.90
45339;DHT22;31071;51.478;5.710;2023-09-08T00:26:48;19.10;99.90
45339;DHT22;31071;51.478;5.710;2023-09-08T00:29:13;19.60;99.90
45339;DHT22;31071;51.478;5.710;2023-09-08T00:31:39;21.70;99.90
45339;DHT22;31071;51.478;5.710;2023-09-08T00:34:05;21.30;99.90
45339;DHT22;31071;51.478;5.710;2023-09-08T00:36:31;20.10;99.90
45339;DHT22;31071;51.478;5.710;2023-09-08T00:38:57;19.70;99.90
45339;DHT22;31071;51.478;5.710;2023-09-08T00:41:23;19.70;99.90
45339;DHT22;31071;51.478;5.710;2023-09-08T00:43:49;19.70;99.90
45339;DHT22;31071;51.478;5.710;2023-09-08T00:46:15;21.10;99.90
45339;DHT22;31071;51.478;5.710;2023-09-08T00:48:41;19.00;99.90
45339;DHT22;31071;51.478;5.710;2023-09-08T00:51:08;17.90;99.90
45339;DHT22;31071;51.478;5.710;2023-09-08T00:53:35;18.30;99.90
45339;DHT22;31071;51.478;5.710;2023-09-08T00:56:02;21.30;99.90
45339;DHT22;31071;51.478;5.710;2023-09-08T00:58:28;18.10;99.90
45339;DHT22;31071;51.478;5.710;2023-09-08T01:00:54;17.20;99.90
45339;DHT22;31071;51.478;5.710;2023-09-08T01:03:23;20.20;99.90
45339;DHT22;31071;51.478;5.710;2023-09-08T01:05:49;20.10;99.90
45339;DHT22;31071;51.478;5.710;2023-09-08T01:08:15;20.20;99.90
45339;DHT22;31071;51.478;5.710;2023-09-08T01:10:42;20.80;99.90
45339;DHT22;31071;51.478;5.710;2023-09-08T01:13:08;19.30;99.90
45339;DHT22;31071;51.478;5.710;2023-09-08T01:15:34;17.80;99.90
45339;DHT22;31071;51.478;5.710;2023-09-08T01:18:00;19.20;99.90
45339;DHT22;31071;51.478;5.710;2023-09-08T01:20:52;15.30;99.90
45339;DHT22;31071;51.478;5.710;2023-09-08T01:26:25;17.60;99.90
45339;DHT22;31071;51.478;5.710;2023-09-08T01:28:53;20.50;99.90
45339;DHT22;31071;51.478;5.710;2023-09-08T01:31:20;17.10;99.90
45339;DHT22;31071;51.478;5.710;2023-09-08T01:33:46;19.50;99.90
45339;DHT22;31071;51.478;5.710;2023-09-08T01:36:11;19.10;99.90
45339;DHT22;31071;51.478;5.710;2023-09-08T01:38:38;20.10;99.90
45339;DHT22;31071;51.478;5.710;2023-09-08T01:41:03;18.60;99.90
45339;DHT22;31071;51.478;5.710;2023-09-08T01:43:29;18.10;99.90
45339;DHT22;31071;51.478;5.710;2023-09-08T01:45:55;19.20;99.90
45339;DHT22;31071;51.478;5.710;2023-09-08T01:48:20;19.90;99.90
45339;DHT22;31071;51.478;5.710;2023-09-08T01:50:47;17.30;99.90
45339;DHT22;31071;51.478;5.710;2023-09-08T01:53:13;18.70;99.90
45339;DHT22;31071;51.478;5.710;2023-09-08T01:55:38;17.40;99.90
45339;DHT22;31071;51.478;5.710;2023-09-08T01:58:04;17.10;99.90
45339;DHT22;31071;51.478;5.710;2023-09-08T02:00:30;17.10;99.90
45339;DHT22;31071;51.478;5.710;2023-09-08T02:02:55;19.50;99.90
45339;DHT22;31071;51.478;5.710;2023-09-08T02:05:21;19.60;99.90
45339;DHT22;31071;51.478;5.710;2023-09-08T02:07:47;20.00;99.90
45339;DHT22;31071;51.478;5.710;2023-09-08T02:10:13;18.10;99.90
45339;DHT22;31071;51.478;5.710;2023-09-08T02:12:38;20.10;99.90
45339;DHT22;31071;51.478;5.710;2023-09-08T02:15:04;17.10;99.90
45339;DHT22;31071;51.478;5.710;2023-09-08T02:17:30;17.10;99.90
45339;DHT22;31071;51.478;5.710;2023-09-08T02:19:56;17.80;99.90
45339;DHT22;31071;51.478;5.710;2023-09-08T02:22:21;16.90;99.90
45339;DHT22;31071;51.478;5.710;2023-09-08T02:24:47;16.90;99.90
45339;DHT22;31071;51.478;5.710;2023-09-08T02:27:13;19.00;99.90
45339;DHT22;31071;51.478;5.710;2023-09-08T02:29:38;15.80;99.90
45339;DHT22;31071;51.478;5.710;2023-09-08T02:32:04;19.50;99.90
45339;DHT22;31071;51.478;5.710;2023-09-08T02:34:30;16.70;99.90
45339;DHT22;31071;51.478;5.710;2023-09-08T02:36:59;19.00;99.90
45339;DHT22;31071;51.478;5.710;2023-09-08T02:39:24;17.60;99.90
45339;DHT22;31071;51.478;5.710;2023-09-08T02:41:52;19.20;99.90
45339;DHT22;31071;51.478;5.710;2023-09-08T02:44:19;18.20;99.90
45339;DHT22;31071;51.478;5.710;2023-09-08T02:46:47;18.60;99.90
45339;DHT22;31071;51.478;5.710;2023-09-08T02:49:13;16.70;99.90
45339;DHT22;31071;51.478;5.710;2023-09-08T02:51:38;19.20;99.90
45339;DHT22;31071;51.478;5.710;2023-09-08T02:54:04;19.50;99.90
45339;DHT22;31071;51.478;5.710;2023-09-08T02:56:30;16.60;99.90
45339;DHT22;31071;51.478;5.710;2023-09-08T02:58:55;18.10;99.90
45339;DHT22;31071;51.478;5.710;2023-09-08T03:01:21;19.30;99.90
45339;DHT22;31071;51.478;5.710;2023-09-08T03:03:48;16.90;99.90
45339;DHT22;31071;51.478;5.710;2023-09-08T03:06:15;16.60;99.90
45339;DHT22;31071;51.478;5.710;2023-09-08T03:08:40;16.60;99.90
45339;DHT22;31071;51.478;5.710;2023-09-08T03:11:07;16.60;99.90
45339;DHT22;31071;51.478;5.710;2023-09-08T03:13:33;16.50;99.90
45339;DHT22;31071;51.478;5.710;2023-09-08T03:16:09;16.20;99.90
45339;DHT22;31071;51.478;5.710;2023-09-08T03:18:36;18.30;99.90
45339;DHT22;31071;51.478;5.710;2023-09-08T03:21:05;18.00;99.90
45339;DHT22;31071;51.478;5.710;2023-09-08T03:23:38;18.80;99.90
45339;DHT22;31071;51.478;5.710;2023-09-08T03:26:03;17.50;99.90
45339;DHT22;31071;51.478;5.710;2023-09-08T03:28:31;16.20;99.90
45339;DHT22;31071;51.478;5.710;2023-09-08T03:30:57;17.80;99.90
45339;DHT22;31071;51.478;5.710;2023-09-08T03:33:23;18.40;99.90
45339;DHT22;31071;51.478;5.710;2023-09-08T03:35:49;18.70;99.90
45339;DHT22;31071;51.478;5.710;2023-09-08T03:38:14;18.20;99.90
45339;DHT22;31071;51.478;5.710;2023-09-08T03:40:40;16.50;99.90
45339;DHT22;31071;51.478;5.710;2023-09-08T03:43:06;16.50;99.90
45339;DHT22;31071;51.478;5.710;2023-09-08T03:45:31;17.80;99.90
45339;DHT22;31071;51.478;5.710;2023-09-08T03:47:57;19.00;99.90
45339;DHT22;31071;51.478;5.710;2023-09-08T03:50:22;16.10;99.90
45339;DHT22;31071;51.478;5.710;2023-09-08T03:52:48;18.70;99.90
45339;DHT22;31071;51.478;5.710;2023-09-08T03:55:13;16.30;99.90
45339;DHT22;31071;51.478;5.710;2023-09-08T03:57:39;17.10;99.90
45339;DHT22;31071;51.478;5.710;2023-09-08T04:00:05;16.30;99.90
45339;DHT22;31071;51.478;5.710;2023-09-08T04:02:32;15.70;99.90
45339;DHT22;31071;51.478;5.710;2023-09-08T04:04:58;18.20;99.90
45339;DHT22;31071;51.478;5.710;2023-09-08T04:07:24;16.30;99.90
45339;DHT22;31071;51.478;5.710;2023-09-08T04:09:50;18.80;99.90
45339;DHT22;31071;51.478;5.710;2023-09-08T04:12:15;18.50;99.90
45339;DHT22;31071;51.478;5.710;2023-09-08T04:14:41;18.70;99.90
45339;DHT22;31071;51.478;5.710;2023-09-08T04:17:07;18.00;99.90
45339;DHT22;31071;51.478;5.710;2023-09-08T04:19:33;18.90;99.90
45339;DHT22;31071;51.478;5.710;2023-09-08T04:21:59;18.40;99.90
45339;DHT22;31071;51.478;5.710;2023-09-08T04:24:24;19.10;99.90
45339;DHT22;31071;51.478;5.710;2023-09-08T04:26:50;16.30;99.90
45339;DHT22;31071;51.478;5.710;2023-09-08T04:29:15;17.00;99.90
45339;DHT22;31071;51.478;5.710;2023-09-08T04:31:41;16.20;99.90
45339;DHT22;31071;51.478;5.710;2023-09-08T04:34:07;16.50;99.90
45339;DHT22;31071;51.478;5.710;2023-09-08T04:36:32;16.50;99.90
45339;DHT22;31071;51.478;5.710;2023-09-08T04:38:58;16.10;99.90
45339;DHT22;31071;51.478;5.710;2023-09-08T04:41:26;17.90;99.90
45339;DHT22;31071;51.478;5.710;2023-09-08T04:43:52;16.00;99.90
45339;DHT22;31071;51.478;5.710;2023-09-08T04:46:19;17.50;99.90
45339;DHT22;31071;51.478;5.710;2023-09-08T04:48:46;18.70;99.90
45339;DHT22;31071;51.478;5.710;2023-09-08T04:51:11;17.00;99.90
45339;DHT22;31071;51.478;5.710;2023-09-08T04:53:37;16.30;99.90
45339;DHT22;31071;51.478;5.710;2023-09-08T04:56:03;18.70;99.90
45339;DHT22;31071;51.478;5.710;2023-09-08T04:58:29;16.00;99.90
45339;DHT22;31071;51.478;5.710;2023-09-08T05:00:57;18.40;99.90
45339;DHT22;31071;51.478;5.710;2023-09-08T05:03:23;15.20;99.90
45339;DHT22;31071;51.478;5.710;2023-09-08T05:05:48;16.10;99.90
45339;DHT22;31071;51.478;5.710;2023-09-08T05:08:14;17.40;99.90
45339;DHT22;31071;51.478;5.710;2023-09-08T05:10:40;17.70;99.90
45339;DHT22;31071;51.478;5.710;2023-09-08T05:13:16;15.90;99.90
45339;DHT22;31071;51.478;5.710;2023-09-08T05:15:48;15.90;99.90
45339;DHT22;31071;51.478;5.710;2023-09-08T05:18:43;16.80;99.90
45339;DHT22;31071;51.478;5.710;2023-09-08T05:21:08;15.90;99.90
45339;DHT22;31071;51.478;5.710;2023-09-08T05:23:34;18.00;99.90
45339;DHT22;31071;51.478;5.710;2023-09-08T05:26:00;16.00;99.90
45339;DHT22;31071;51.478;5.710;2023-09-08T05:28:26;17.60;99.90
45339;DHT22;31071;51.478;5.710;2023-09-08T05:30:53;16.80;99.90
45339;DHT22;31071;51.478;5.710;2023-09-08T05:33:19;18.60;99.90
45339;DHT22;31071;51.478;5.710;2023-09-08T05:35:45;15.80;99.90
45339;DHT22;31071;51.478;5.710;2023-09-08T05:38:11;17.20;99.90
45339;DHT22;31071;51.478;5.710;2023-09-08T05:40:37;16.20;99.90
45339;DHT22;31071;51.478;5.710;2023-09-08T05:43:03;19.10;99.90
45339;DHT22;31071;51.478;5.710;2023-09-08T05:45:29;13.90;99.90
45339;DHT22;31071;51.478;5.710;2023-09-08T05:47:56;16.10;99.90
45339;DHT22;31071;51.478;5.710;2023-09-08T05:50:22;18.50;99.90
45339;DHT22;31071;51.478;5.710;2023-09-08T05:52:48;16.40;99.90
45339;DHT22;31071;51.478;5.710;2023-09-08T05:55:13;18.10;99.90
45339;DHT22;31071;51.478;5.710;2023-09-08T05:57:39;16.40;99.90
45339;DHT22;31071;51.478;5.710;2023-09-08T06:00:06;18.70;99.90
45339;DHT22;31071;51.478;5.710;2023-09-08T06:02:34;16.60;99.90
45339;DHT22;31071;51.478;5.710;2023-09-08T06:05:00;15.70;99.90
45339;DHT22;31071;51.478;5.710;2023-09-08T06:07:26;17.80;99.90
45339;DHT22;31071;51.478;5.710;2023-09-08T06:09:54;17.50;99.90
45339;DHT22;31071;51.478;5.710;2023-09-08T06:12:19;18.70;99.90
45339;DHT22;31071;51.478;5.710;2023-09-08T06:14:45;19.50;99.90
45339;DHT22;31071;51.478;5.710;2023-09-08T06:17:11;18.00;99.90
45339;DHT22;31071;51.478;5.710;2023-09-08T06:19:36;17.20;99.90
45339;DHT22;31071;51.478;5.710;2023-09-08T06:22:02;17.30;99.90
45339;DHT22;31071;51.478;5.710;2023-09-08T06:24:27;17.40;99.90
45339;DHT22;31071;51.478;5.710;2023-09-08T06:26:53;19.10;99.90
45339;DHT22;31071;51.478;5.710;2023-09-08T06:29:19;19.50;99.90
45339;DHT22;31071;51.478;5.710;2023-09-08T06:31:44;17.50;99.90
45339;DHT22;31071;51.478;5.710;2023-09-08T06:34:10;20.20;99.90
45339;DHT22;31071;51.478;5.710;2023-09-08T06:36:36;20.10;99.90
45339;DHT22;31071;51.478;5.710;2023-09-08T06:39:01;17.90;99.90
45339;DHT22;31071;51.478;5.710;2023-09-08T06:41:27;18.10;99.90
45339;DHT22;31071;51.478;5.710;2023-09-08T06:43:53;18.20;99.90
45339;DHT22;31071;51.478;5.710;2023-09-08T06:46:19;20.10;99.90
45339;DHT22;31071;51.478;5.710;2023-09-08T06:48:45;18.80;99.90
45339;DHT22;31071;51.478;5.710;2023-09-08T06:51:10;18.60;99.90
45339;DHT22;31071;51.478;5.710;2023-09-08T06:53:36;20.50;99.90
45339;DHT22;31071;51.478;5.710;2023-09-08T06:56:11;19.10;99.90
45339;DHT22;31071;51.478;5.710;2023-09-08T06:58:37;19.20;99.90
45339;DHT22;31071;51.478;5.710;2023-09-08T07:01:02;21.30;99.90
45339;DHT22;31071;51.478;5.710;2023-09-08T07:03:28;19.80;99.90
45339;DHT22;31071;51.478;5.710;2023-09-08T07:05:54;19.70;99.90
45339;DHT22;31071;51.478;5.710;2023-09-08T07:08:19;21.90;99.90
45339;DHT22;31071;51.478;5.710;2023-09-08T07:10:51;21.30;99.90
45339;DHT22;31071;51.478;5.710;2023-09-08T07:15:52;20.10;99.90
45339;DHT22;31071;51.478;5.710;2023-09-08T07:18:17;20.00;99.90
45339;DHT22;31071;51.478;5.710;2023-09-08T07:20:47;20.40;99.90
45339;DHT22;31071;51.478;5.710;2023-09-08T07:23:19;22.60;99.90
45339;DHT22;31071;51.478;5.710;2023-09-08T07:25:48;23.00;99.90
45339;DHT22;31071;51.478;5.710;2023-09-08T07:28:15;21.50;99.90
45339;DHT22;31071;51.478;5.710;2023-09-08T07:30:41;22.20;99.90
45339;DHT22;31071;51.478;5.710;2023-09-08T07:33:07;20.90;99.90
45339;DHT22;31071;51.478;5.710;2023-09-08T07:35:42;21.30;99.90
45339;DHT22;31071;51.478;5.710;2023-09-08T07:38:10;21.20;99.90
45339;DHT22;31071;51.478;5.710;2023-09-08T07:40:36;23.70;99.90
45339;DHT22;31071;51.478;5.710;2023-09-08T07:43:02;21.80;99.90
45339;DHT22;31071;51.478;5.710;2023-09-08T07:45:27;21.40;99.90
45339;DHT22;31071;51.478;5.710;2023-09-08T07:47:53;21.60;99.90
45339;DHT22;31071;51.478;5.710;2023-09-08T07:50:26;21.70;99.90
45339;DHT22;31071;51.478;5.710;2023-09-08T07:52:54;22.50;99.90
45339;DHT22;31071;51.478;5.710;2023-09-08T07:55:20;22.50;99.90
45339;DHT22;31071;51.478;5.710;2023-09-08T07:57:49;22.20;99.90
45339;DHT22;31071;51.478;5.710;2023-09-08T08:00:15;23.00;99.90
45339;DHT22;31071;51.478;5.710;2023-09-08T08:02:53;22.40;99.90
45339;DHT22;31071;51.478;5.710;2023-09-08T08:05:19;22.50;99.90
45339;DHT22;31071;51.478;5.710;2023-09-08T08:07:45;22.70;99.90
45339;DHT22;31071;51.478;5.710;2023-09-08T08:10:12;22.80;99.90
45339;DHT22;31071;51.478;5.710;2023-09-08T08:12:38;23.00;99.90
45339;DHT22;31071;51.478;5.710;2023-09-08T08:15:04;23.20;99.90
45339;DHT22;31071;51.478;5.710;2023-09-08T08:17:31;23.40;99.90
45339;DHT22;31071;51.478;5.710;2023-09-08T08:19:57;23.50;99.90
45339;DHT22;31071;51.478;5.710;2023-09-08T08:22:32;23.70;99.90
45339;DHT22;31071;51.478;5.710;2023-09-08T08:24:57;23.90;99.90
45339;DHT22;31071;51.478;5.710;2023-09-08T08:27:23;24.00;99.90
45339;DHT22;31071;51.478;5.710;2023-09-08T08:29:48;24.40;99.90
45339;DHT22;31071;51.478;5.710;2023-09-08T08:32:14;24.30;99.80
45339;DHT22;31071;51.478;5.710;2023-09-08T08:34:39;24.50;99.60
45339;DHT22;31071;51.478;5.710;2023-09-08T08:37:05;24.80;99.00
45339;DHT22;31071;51.478;5.710;2023-09-08T08:39:30;24.90;98.20
45339;DHT22;31071;51.478;5.710;2023-09-08T08:41:56;25.10;97.70
45339;DHT22;31071;51.478;5.710;2023-09-08T08:44:23;25.30;97.00
45339;DHT22;31071;51.478;5.710;2023-09-08T08:46:48;25.60;96.70
45339;DHT22;31071;51.478;5.710;2023-09-08T08:49:15;26.30;96.40
45339;DHT22;31071;51.478;5.710;2023-09-08T08:51:45;26.80;95.40
45339;DHT22;31071;51.478;5.710;2023-09-08T08:54:13;27.80;93.90
45339;DHT22;31071;51.478;5.710;2023-09-08T08:56:41;28.00;94.90
45339;DHT22;31071;51.478;5.710;2023-09-08T08:59:07;27.70;93.00
45339;DHT22;31071;51.478;5.710;2023-09-08T09:01:34;27.90;94.20
45339;DHT22;31071;51.478;5.710;2023-09-08T09:04:01;28.10;93.10
45339;DHT22;31071;51.478;5.710;2023-09-08T09:06:26;27.80;93.30
45339;DHT22;31071;51.478;5.710;2023-09-08T09:08:52;27.60;94.50
45339;DHT22;31071;51.478;5.710;2023-09-08T09:11:17;27.70;94.50
45339;DHT22;31071;51.478;5.710;2023-09-08T09:13:43;27.50;92.70
45339;DHT22;31071;51.478;5.710;2023-09-08T09:16:08;27.50;93.00
45339;DHT22;31071;51.478;5.710;2023-09-08T09:18:56;27.60;91.90
45339;DHT22;31071;51.478;5.710;2023-09-08T09:21:22;28.30;92.60
45339;DHT22;31071;51.478;5.710;2023-09-08T09:23:48;29.30;92.00
45339;DHT22;31071;51.478;5.710;2023-09-08T09:26:24;29.20;90.40
45339;DHT22;31071;51.478;5.710;2023-09-08T09:28:50;29.00;89.80
45339;DHT22;31071;51.478;5.710;2023-09-08T09:31:18;28.20;90.50
45339;DHT22;31071;51.478;5.710;2023-09-08T09:33:44;28.50;90.80
45339;DHT22;31071;51.478;5.710;2023-09-08T09:36:20;28.50;90.20
45339;DHT22;31071;51.478;5.710;2023-09-08T09:38:47;28.60;90.40
45339;DHT22;31071;51.478;5.710;2023-09-08T09:41:12;28.80;89.80
45339;DHT22;31071;51.478;5.710;2023-09-08T09:43:38;28.60;90.10
45339;DHT22;31071;51.478;5.710;2023-09-08T09:46:07;29.50;90.60
45339;DHT22;31071;51.478;5.710;2023-09-08T09:48:35;28.60;90.40
45339;DHT22;31071;51.478;5.710;2023-09-08T09:51:23;29.50;88.70
45339;DHT22;31071;51.478;5.710;2023-09-08T09:53:52;30.00;85.40
45339;DHT22;31071;51.478;5.710;2023-09-08T09:56:20;29.60;88.10
45339;DHT22;31071;51.478;5.710;2023-09-08T09:58:48;30.00;88.20
45339;DHT22;31071;51.478;5.710;2023-09-08T10:01:14;29.60;86.80
45339;DHT22;31071;51.478;5.710;2023-09-08T10:03:40;29.30;87.40
45339;DHT22;31071;51.478;5.710;2023-09-08T10:06:06;29.50;86.70
45339;DHT22;31071;51.478;5.710;2023-09-08T10:08:35;29.40;86.90
45339;DHT22;31071;51.478;5.710;2023-09-08T10:11:07;29.80;86.80
45339;DHT22;31071;51.478;5.710;2023-09-08T10:13:39;30.30;86.80
45339;DHT22;31071;51.478;5.710;2023-09-08T10:16:05;30.30;85.10
45339;DHT22;31071;51.478;5.710;2023-09-08T10:18:35;30.50;86.40
45339;DHT22;31071;51.478;5.710;2023-09-08T10:21:03;30.70;85.00
45339;DHT22;31071;51.478;5.710;2023-09-08T10:26:02;30.60;85.30
45339;DHT22;31071;51.478;5.710;2023-09-08T10:28:33;31.00;86.60
45339;DHT22;31071;51.478;5.710;2023-09-08T10:30:59;31.30;83.90
45339;DHT22;31071;51.478;5.710;2023-09-08T10:33:26;32.00;86.00
45339;DHT22;31071;51.478;5.710;2023-09-08T10:35:52;31.60;85.00
45339;DHT22;31071;51.478;5.710;2023-09-08T10:38:26;31.90;83.60
45339;DHT22;31071;51.478;5.710;2023-09-08T10:40:53;34.30;85.40
45339;DHT22;31071;51.478;5.710;2023-09-08T10:43:19;32.80;82.60
45339;DHT22;31071;51.478;5.710;2023-09-08T10:45:46;33.00;81.70
45339;DHT22;31071;51.478;5.710;2023-09-08T10:48:12;32.90;81.90
45339;DHT22;31071;51.478;5.710;2023-09-08T10:50:40;33.60;80.20
45339;DHT22;31071;51.478;5.710;2023-09-08T10:53:15;33.90;78.50
45339;DHT22;31071;51.478;5.710;2023-09-08T10:55:43;33.30;79.20
45339;DHT22;31071;51.478;5.710;2023-09-08T10:58:17;34.90;79.40
45339;DHT22;31071;51.478;5.710;2023-09-08T11:00:48;33.50;78.00
45339;DHT22;31071;51.478;5.710;2023-09-08T11:03:42;33.60;77.30
45339;DHT22;31071;51.478;5.710;2023-09-08T11:06:08;33.40;77.80
45339;DHT22;31071;51.478;5.710;2023-09-08T11:08:38;34.30;78.70
45339;DHT22;31071;51.478;5.710;2023-09-08T11:11:04;33.50;77.10
45339;DHT22;31071;51.478;5.710;2023-09-08T11:13:29;33.80;77.70
45339;DHT22;31071;51.478;5.710;2023-09-08T11:15:55;33.20;79.10
45339;DHT22;31071;51.478;5.710;2023-09-08T11:18:28;33.60;79.40
45339;DHT22;31071;51.478;5.710;2023-09-08T11:20:54;34.70;80.00
45339;DHT22;31071;51.478;5.710;2023-09-08T11:23:20;33.40;79.10
45339;DHT22;31071;51.478;5.710;2023-09-08T11:25:47;33.00;79.60
45339;DHT22;31071;51.478;5.710;2023-09-08T11:28:13;33.40;77.80
45339;DHT22;31071;51.478;5.710;2023-09-08T11:30:39;33.60;77.80
45339;DHT22;31071;51.478;5.710;2023-09-08T11:33:17;34.40;76.80
45339;DHT22;31071;51.478;5.710;2023-09-08T11:35:45;33.80;75.10
45339;DHT22;31071;51.478;5.710;2023-09-08T11:38:11;34.40;75.20
45339;DHT22;31071;51.478;5.710;2023-09-08T11:40:37;34.80;73.10
45339;DHT22;31071;51.478;5.710;2023-09-08T11:43:03;35.70;72.00
45339;DHT22;31071;51.478;5.710;2023-09-08T11:45:30;35.50;69.70
45339;DHT22;31071;51.478;5.710;2023-09-08T11:47:57;35.40;72.70
45339;DHT22;31071;51.478;5.710;2023-09-08T11:50:23;35.10;71.20
45339;DHT22;31071;51.478;5.710;2023-09-08T11:52:50;35.80;68.60
45339;DHT22;31071;51.478;5.710;2023-09-08T11:55:17;35.80;69.70
45339;DHT22;31071;51.478;5.710;2023-09-08T11:57:46;36.40;69.00
45339;DHT22;31071;51.478;5.710;2023-09-08T12:00:13;36.70;66.00
45339;DHT22;31071;51.478;5.710;2023-09-08T12:02:44;37.80;66.30
45339;DHT22;31071;51.478;5.710;2023-09-08T12:05:26;37.30;64.50
45339;DHT22;31071;51.478;5.710;2023-09-08T12:07:54;37.80;65.70
45339;DHT22;31071;51.478;5.710;2023-09-08T12:10:21;38.60;63.80
45339;DHT22;31071;51.478;5.710;2023-09-08T12:12:54;39.40;61.70
45339;DHT22;31071;51.478;5.710;2023-09-08T12:15:36;39.00;60.60
45339;DHT22;31071;51.478;5.710;2023-09-08T12:18:04;39.40;60.30
45339;DHT22;31071;51.478;5.710;2023-09-08T12:20:31;39.90;59.40
45339;DHT22;31071;51.478;5.710;2023-09-08T12:23:01;39.50;59.30
45339;DHT22;31071;51.478;5.710;2023-09-08T12:25:27;39.10;58.20
45339;DHT22;31071;51.478;5.710;2023-09-08T12:27:54;39.30;57.20
45339;DHT22;31071;51.478;5.710;2023-09-08T12:30:21;38.00;59.70
45339;DHT22;31071;51.478;5.710;2023-09-08T12:32:48;38.90;58.10
45339;DHT22;31071;51.478;5.710;2023-09-08T12:35:22;38.90;56.10
45339;DHT22;31071;51.478;5.710;2023-09-08T12:37:59;38.20;57.10
45339;DHT22;31071;51.478;5.710;2023-09-08T12:40:30;37.90;57.80
45339;DHT22;31071;51.478;5.710;2023-09-08T12:42:56;36.20;58.10
45339;DHT22;31071;51.478;5.710;2023-09-08T12:45:25;35.80;59.40
45339;DHT22;31071;51.478;5.710;2023-09-08T12:47:51;36.80;58.40
45339;DHT22;31071;51.478;5.710;2023-09-08T12:50:17;37.50;57.00
45339;DHT22;31071;51.478;5.710;2023-09-08T12:52:43;37.50;57.30
45339;DHT22;31071;51.478;5.710;2023-09-08T12:55:08;36.20;58.30
45339;DHT22;31071;51.478;5.710;2023-09-08T12:57:35;36.50;59.10
45339;DHT22;31071;51.478;5.710;2023-09-08T13:00:04;37.60;58.70
45339;DHT22;31071;51.478;5.710;2023-09-08T13:02:30;37.10;57.60
45339;DHT22;31071;51.478;5.710;2023-09-08T13:04:56;36.80;58.40
45339;DHT22;31071;51.478;5.710;2023-09-08T13:07:23;36.30;59.40
45339;DHT22;31071;51.478;5.710;2023-09-08T13:09:48;37.20;58.80
45339;DHT22;31071;51.478;5.710;2023-09-08T13:12:16;36.40;58.40
45339;DHT22;31071;51.478;5.710;2023-09-08T13:14:41;37.50;57.80
45339;DHT22;31071;51.478;5.710;2023-09-08T13:17:10;36.70;58.20
45339;DHT22;31071;51.478;5.710;2023-09-08T13:19:36;36.70;58.60
45339;DHT22;31071;51.478;5.710;2023-09-08T13:22:06;37.20;58.10
45339;DHT22;31071;51.478;5.710;2023-09-08T13:24:32;37.50;58.00
45339;DHT22;31071;51.478;5.710;2023-09-08T13:27:02;37.60;57.20
45339;DHT22;31071;51.478;5.710;2023-09-08T13:29:28;38.50;56.00
45339;DHT22;31071;51.478;5.710;2023-09-08T13:31:54;38.80;56.90
45339;DHT22;31071;51.478;5.710;2023-09-08T13:34:20;40.20;57.80
45339;DHT22;31071;51.478;5.710;2023-09-08T13:36:47;37.70;56.80
45339;DHT22;31071;51.478;5.710;2023-09-08T13:39:12;37.30;57.00
45339;DHT22;31071;51.478;5.710;2023-09-08T13:41:50;37.50;56.90
45339;DHT22;31071;51.478;5.710;2023-09-08T13:44:21;37.10;56.70
45339;DHT22;31071;51.478;5.710;2023-09-08T13:46:48;37.60;57.70
45339;DHT22;31071;51.478;5.710;2023-09-08T13:49:14;37.70;57.50
45339;DHT22;31071;51.478;5.710;2023-09-08T13:51:40;37.90;57.60
45339;DHT22;31071;51.478;5.710;2023-09-08T13:54:08;38.80;55.80
45339;DHT22;31071;51.478;5.710;2023-09-08T13:56:33;38.50;57.50
45339;DHT22;31071;51.478;5.710;2023-09-08T13:58:59;37.70;58.50
45339;DHT22;31071;51.478;5.710;2023-09-08T14:01:25;37.20;59.30
45339;DHT22;31071;51.478;5.710;2023-09-08T14:03:53;37.80;58.70
45339;DHT22;31071;51.478;5.710;2023-09-08T14:06:18;37.10;57.90
45339;DHT22;31071;51.478;5.710;2023-09-08T14:08:44;37.10;58.70
45339;DHT22;31071;51.478;5.710;2023-09-08T14:11:10;36.10;58.00
45339;DHT22;31071;51.478;5.710;2023-09-08T14:13:37;36.20;58.60
45339;DHT22;31071;51.478;5.710;2023-09-08T14:16:03;36.80;59.70
45339;DHT22;31071;51.478;5.710;2023-09-08T14:18:28;36.90;58.30
45339;DHT22;31071;51.478;5.710;2023-09-08T14:20:54;36.70;58.50
45339;DHT22;31071;51.478;5.710;2023-09-08T14:23:20;35.50;59.30
45339;DHT22;31071;51.478;5.710;2023-09-08T14:25:45;34.90;61.70
45339;DHT22;31071;51.478;5.710;2023-09-08T14:28:11;34.60;61.20
45339;DHT22;31071;51.478;5.710;2023-09-08T14:30:37;34.70;61.40
45339;DHT22;31071;51.478;5.710;2023-09-08T14:33:02;35.00;61.60
45339;DHT22;31071;51.478;5.710;2023-09-08T14:35:29;34.30;62.10
45339;DHT22;31071;51.478;5.710;2023-09-08T14:37:54;34.10;62.60
45339;DHT22;31071;51.478;5.710;2023-09-08T14:40:22;34.70;62.90
45339;DHT22;31071;51.478;5.710;2023-09-08T14:42:47;35.20;61.10
45339;DHT22;31071;51.478;5.710;2023-09-08T14:45:13;35.40;61.10
45339;DHT22;31071;51.478;5.710;2023-09-08T14:47:39;35.70;59.70
45339;DHT22;31071;51.478;5.710;2023-09-08T14:50:05;35.40;59.20
45339;DHT22;31071;51.478;5.710;2023-09-08T14:52:30;34.60;60.70
45339;DHT22;31071;51.478;5.710;2023-09-08T14:54:56;34.60;62.10
45339;DHT22;31071;51.478;5.710;2023-09-08T14:57:21;34.40;62.20
45339;DHT22;31071;51.478;5.710;2023-09-08T14:59:47;34.40;62.40
45339;DHT22;31071;51.478;5.710;2023-09-08T15:02:12;34.50;62.80
45339;DHT22;31071;51.478;5.710;2023-09-08T15:04:38;33.40;63.90
45339;DHT22;31071;51.478;5.710;2023-09-08T15:07:04;32.40;65.80
45339;DHT22;31071;51.478;5.710;2023-09-08T15:09:29;32.10;66.50
45339;DHT22;31071;51.478;5.710;2023-09-08T15:11:55;32.50;66.80
45339;DHT22;31071;51.478;5.710;2023-09-08T15:14:20;32.20;67.10
45339;DHT22;31071;51.478;5.710;2023-09-08T15:16:46;32.00;67.60
45339;DHT22;31071;51.478;5.710;2023-09-08T15:19:12;32.10;68.20
45339;DHT22;31071;51.478;5.710;2023-09-08T15:21:37;32.30;69.60
45339;DHT22;31071;51.478;5.710;2023-09-08T15:24:04;32.10;67.00
45339;DHT22;31071;51.478;5.710;2023-09-08T15:26:30;32.20;68.80
45339;DHT22;31071;51.478;5.710;2023-09-08T15:28:55;32.30;67.30
45339;DHT22;31071;51.478;5.710;2023-09-08T15:31:21;33.50;68.90
45339;DHT22;31071;51.478;5.710;2023-09-08T15:33:47;32.30;68.60
45339;DHT22;31071;51.478;5.710;2023-09-08T15:36:13;34.30;70.40